Benton, Kansas
Current Conditions -  °F | °C
As of 12:54 AM on Friday 19 Dec 2014 (Local Time) from KAAO Reporting Station
Haze Haze  
Wind Chill: 29°   Ceiling: 300
Heat Index: 29°   Visibility: 5mi
Dew Point: 28°   Wind: 3mph
Humidity: 96%   Direction: 360°N
Pressure: 30.24"   Gusts: NA
Location:  37.79°N, 97.11°W
Report Text: KAAO 190654Z AUTO 36003KT 5SM BR OVC003 M02/M02 A3024 RMK AO2 SLP256 T10171022
Loading
Personal Weather Stations






























Interactive Weather Map New forecast layout! Learn more

10-Day Weather Forecast

Advertisements
Track Severe Weather on mobile